createdAt,value
2023-04-17T00:00:31.240Z,9.16
2023-04-17T00:03:01.740Z,9.16
2023-04-17T00:05:31.988Z,9.13
2023-04-17T00:08:00.419Z,9.12
2023-04-17T00:10:29.703Z,9.10
2023-04-17T00:12:57.728Z,9.09
2023-04-17T00:15:25.724Z,9.08
2023-04-17T00:17:53.661Z,9.05
2023-04-17T00:20:21.763Z,9.04
2023-04-17T00:22:49.707Z,9.07
2023-04-17T00:25:17.641Z,9.07
2023-04-17T00:27:47.167Z,9.02
2023-04-17T00:30:15.282Z,9.04
2023-04-17T00:32:43.214Z,9.03
2023-04-17T00:35:11.385Z,9.00
2023-04-17T00:37:39.307Z,9.01
2023-04-17T00:40:08.448Z,8.98
2023-04-17T00:42:36.422Z,8.99
2023-04-17T00:45:06.536Z,8.97
2023-04-17T00:47:34.679Z,8.96
2023-04-17T00:50:03.130Z,8.94
2023-04-17T00:52:31.600Z,8.91
2023-04-17T00:55:00.387Z,8.89
2023-04-17T00:57:28.504Z,8.89
2023-04-17T00:59:57.677Z,8.91
2023-04-17T01:02:27.201Z,8.88
2023-04-17T01:04:55.316Z,8.89
2023-04-17T01:07:23.212Z,8.89
2023-04-17T01:09:51.141Z,8.90
2023-04-17T01:12:20.608Z,8.86
2023-04-17T01:14:48.862Z,8.88
2023-04-17T01:17:19.006Z,8.87
2023-04-17T01:19:49.011Z,8.86
2023-04-17T01:22:17.465Z,8.84
2023-04-17T01:24:46.981Z,8.85
2023-04-17T01:27:15.364Z,8.83
2023-04-17T01:29:43.467Z,8.79
2023-04-17T01:32:11.572Z,8.79
2023-04-17T01:34:39.461Z,8.75
2023-04-17T01:37:07.573Z,8.74
2023-04-17T01:39:35.587Z,8.73
2023-04-17T01:42:05.268Z,8.74
2023-04-17T01:44:33.378Z,8.74
2023-04-17T01:47:01.457Z,8.73
2023-04-17T01:49:29.642Z,8.71
2023-04-17T01:51:57.534Z,8.71
2023-04-17T01:54:26.011Z,8.69
2023-04-17T01:56:55.114Z,8.71
2023-04-17T01:59:24.500Z,8.66
2023-04-17T02:01:52.733Z,8.67
2023-04-17T02:04:21.001Z,8.68
2023-04-17T02:06:48.980Z,8.65
2023-04-17T02:09:16.957Z,8.63
2023-04-17T02:11:44.870Z,8.66
2023-04-17T02:14:12.827Z,8.65
2023-04-17T02:16:46.106Z,8.64
2023-04-17T02:19:14.420Z,8.61
2023-04-17T02:21:42.300Z,8.61
2023-04-17T02:24:10.413Z,8.62
2023-04-17T02:26:38.396Z,8.56
2023-04-17T02:29:06.299Z,8.53
2023-04-17T02:31:34.230Z,8.54
2023-04-17T02:34:03.693Z,8.56
2023-04-17T02:36:32.055Z,8.55
2023-04-17T02:38:59.960Z,8.55
2023-04-17T02:41:27.915Z,8.54
2023-04-17T02:43:56.751Z,8.54
2023-04-17T02:46:24.734Z,8.52
2023-04-17T02:48:52.657Z,8.49
2023-04-17T02:51:21.936Z,8.48
2023-04-17T02:53:50.250Z,8.47
2023-04-17T02:56:18.409Z,8.47
2023-04-17T02:58:46.363Z,8.45
2023-04-17T03:01:14.268Z,8.44
2023-04-17T03:03:43.144Z,8.45
2023-04-17T03:06:11.357Z,8.44
2023-04-17T03:08:40.619Z,8.43
2023-04-17T03:11:08.587Z,8.42
2023-04-17T03:13:37.631Z,8.37
2023-04-17T03:16:06.401Z,8.35
2023-04-17T03:18:36.442Z,8.31
2023-04-17T03:21:04.544Z,8.31
2023-04-17T03:23:32.518Z,8.32
2023-04-17T03:26:02.058Z,8.29
2023-04-17T03:28:29.981Z,8.32
2023-04-17T03:30:59.550Z,8.30
2023-04-17T03:33:27.511Z,8.27
2023-04-17T03:35:55.435Z,8.24
2023-04-17T03:38:23.313Z,8.21
2023-04-17T03:40:51.512Z,8.20
2023-04-17T03:43:20.797Z,8.18
2023-04-17T03:45:48.784Z,8.15
2023-04-17T03:48:16.718Z,8.15
2023-04-17T03:50:44.630Z,8.12
2023-04-17T03:53:12.542Z,8.11
2023-04-17T03:55:40.824Z,8.08
2023-04-17T03:58:08.717Z,8.06
2023-04-17T04:00:38.591Z,8.02
2023-04-17T04:03:06.712Z,7.97
2023-04-17T04:05:34.731Z,7.91
2023-04-17T04:08:02.635Z,7.87
2023-04-17T04:10:32.504Z,7.85
2023-04-17T04:13:00.494Z,7.92
2023-04-17T04:15:28.438Z,7.96
2023-04-17T04:17:57.761Z,7.96
2023-04-17T04:20:25.700Z,7.99
2023-04-17T04:22:53.784Z,7.95
2023-04-17T04:25:21.858Z,7.92
2023-04-17T04:27:50.682Z,7.94
2023-04-17T04:30:18.652Z,7.99
2023-04-17T04:32:46.713Z,8.00
2023-04-17T04:35:16.902Z,8.03
2023-04-17T04:37:46.472Z,8.03
2023-04-17T04:40:14.960Z,8.00
2023-04-17T04:42:43.113Z,7.97
2023-04-17T04:45:11.862Z,7.97
2023-04-17T04:47:39.821Z,7.96
2023-04-17T04:50:08.856Z,7.97
2023-04-17T04:52:38.173Z,7.97
2023-04-17T04:55:07.460Z,7.98
2023-04-17T04:57:36.373Z,8.00
2023-04-17T05:00:06.512Z,8.00
2023-04-17T05:02:34.876Z,8.01
2023-04-17T05:05:03.008Z,8.01
2023-04-17T05:07:31.065Z,8.01
2023-04-17T05:10:00.488Z,8.02
2023-04-17T05:12:28.420Z,8.05
2023-04-17T05:14:56.312Z,8.06
2023-04-17T05:17:24.230Z,8.07
2023-04-17T05:19:52.311Z,8.08
2023-04-17T05:22:20.244Z,8.12
2023-04-17T05:24:48.154Z,8.13
2023-04-17T05:27:17.739Z,8.14
2023-04-17T05:29:45.722Z,8.16
2023-04-17T05:32:13.650Z,8.17
2023-04-17T05:34:41.529Z,8.21
2023-04-17T05:37:09.658Z,8.21
2023-04-17T05:39:38.052Z,8.24
2023-04-17T05:42:06.145Z,8.25
2023-04-17T05:44:35.448Z,8.27
2023-04-17T05:47:03.679Z,8.32
2023-04-17T05:49:31.619Z,8.31
2023-04-17T05:51:59.550Z,8.31
2023-04-17T05:54:28.998Z,8.33
2023-04-17T05:56:56.988Z,8.37
2023-04-17T05:59:25.324Z,8.42
2023-04-17T06:01:54.707Z,8.43
2023-04-17T06:04:22.915Z,8.46
2023-04-17T06:06:51.079Z,8.55
2023-04-17T06:09:19.264Z,8.53
2023-04-17T06:11:47.292Z,8.56
2023-04-17T06:14:15.199Z,8.61
2023-04-17T06:16:45.892Z,8.63
2023-04-17T06:19:15.316Z,8.68
2023-04-17T06:21:43.212Z,8.73
2023-04-17T06:24:11.148Z,8.74
2023-04-17T06:26:39.076Z,8.77
2023-04-17T06:29:06.972Z,8.82
2023-04-17T06:31:35.008Z,8.86
2023-04-17T06:34:03.071Z,8.91
2023-04-17T06:36:33.335Z,8.96
2023-04-17T06:39:01.244Z,9.00
2023-04-17T06:41:29.152Z,9.04
2023-04-17T06:43:57.106Z,9.07
2023-04-17T06:46:25.105Z,9.11
2023-04-17T06:48:53.024Z,9.14
2023-04-17T06:51:21.769Z,9.19
2023-04-17T06:53:51.110Z,9.25
2023-04-17T06:56:19.499Z,9.33
2023-04-17T06:58:47.706Z,9.36
2023-04-17T07:01:15.963Z,9.44
2023-04-17T07:03:44.621Z,9.48
2023-04-17T07:06:12.665Z,9.53
2023-04-17T07:08:40.623Z,9.57
2023-04-17T07:11:09.924Z,9.64
2023-04-17T07:13:37.907Z,9.67
2023-04-17T07:16:06.889Z,9.74
2023-04-17T07:18:34.990Z,9.82
2023-04-17T07:21:03.077Z,9.87
2023-04-17T07:23:31.147Z,9.93
2023-04-17T07:25:59.206Z,9.98
2023-04-17T07:28:28.511Z,10.11
2023-04-17T07:30:58.173Z,10.32
2023-04-17T07:33:26.500Z,10.49
2023-04-17T07:35:54.433Z,10.50
2023-04-17T07:38:22.340Z,10.66
2023-04-17T07:40:50.260Z,10.71
2023-04-17T07:43:18.433Z,10.83
2023-04-17T07:45:49.000Z,10.88
2023-04-17T07:48:18.631Z,11.04
2023-04-17T07:50:47.074Z,11.03
2023-04-17T07:53:15.045Z,11.18
2023-04-17T07:55:42.928Z,11.20
2023-04-17T07:58:11.453Z,11.26
2023-04-17T08:00:39.461Z,11.28
2023-04-17T08:03:09.165Z,11.35
2023-04-17T08:05:37.266Z,11.42
2023-04-17T08:08:05.788Z,11.44
2023-04-17T08:10:33.753Z,11.42
2023-04-17T08:13:01.861Z,11.48
2023-04-17T08:15:29.952Z,11.56
2023-04-17T08:17:58.556Z,11.65
2023-04-17T08:20:28.187Z,11.72
2023-04-17T08:22:56.099Z,11.85
2023-04-17T08:25:24.232Z,11.91
2023-04-17T08:27:52.962Z,11.93
2023-04-17T08:30:21.130Z,12.06
2023-04-17T08:32:52.236Z,12.21
2023-04-17T08:35:20.838Z,12.26
2023-04-17T08:37:50.553Z,12.28
2023-04-17T08:40:18.930Z,12.37
2023-04-17T08:42:48.284Z,12.50
2023-04-17T08:45:17.483Z,12.58
2023-04-17T08:47:45.511Z,12.62
2023-04-17T08:50:14.961Z,12.75
2023-04-17T08:52:46.591Z,12.77
2023-04-17T08:55:16.898Z,12.89
2023-04-17T08:57:58.317Z,12.98
2023-04-17T09:00:27.609Z,13.04
2023-04-17T09:02:57.297Z,13.11
2023-04-17T09:05:26.860Z,13.24
2023-04-17T09:08:08.653Z,13.24
2023-04-17T09:10:39.217Z,13.31
2023-04-17T09:13:07.622Z,13.40
2023-04-17T09:15:36.249Z,13.32
2023-04-17T09:18:04.456Z,13.33
2023-04-17T09:20:32.650Z,13.63
2023-04-17T09:23:02.590Z,13.89
2023-04-17T09:25:31.007Z,13.96
2023-04-17T09:28:12.814Z,13.97
2023-04-17T09:30:41.637Z,14.01
2023-04-17T09:33:12.131Z,14.15
2023-04-17T09:35:40.670Z,14.18
2023-04-17T09:38:08.793Z,14.19
2023-04-17T09:40:41.103Z,14.16
2023-04-17T09:43:11.516Z,14.21
2023-04-17T09:45:42.794Z,14.33
2023-04-17T09:48:12.226Z,14.38
2023-04-17T09:50:41.278Z,14.47
2023-04-17T09:53:10.211Z,14.59
2023-04-17T09:55:39.725Z,14.73
2023-04-17T09:58:09.338Z,14.66
2023-04-17T10:00:42.838Z,14.59
2023-04-17T10:03:11.531Z,14.70
2023-04-17T10:05:40.048Z,14.84
2023-04-17T10:08:08.417Z,14.83
2023-04-17T10:10:36.592Z,14.86
2023-04-17T10:13:08.670Z,14.98
2023-04-17T10:15:38.273Z,15.04
2023-04-17T10:18:23.388Z,15.12
2023-04-17T10:20:53.627Z,15.23
2023-04-17T10:23:32.724Z,15.35
2023-04-17T10:26:43.256Z,15.40
2023-04-17T10:29:12.764Z,15.49
2023-04-17T10:32:20.594Z,15.61
2023-04-17T10:34:50.040Z,15.72
2023-04-17T10:37:17.948Z,15.66
2023-04-17T10:39:57.734Z,15.76
2023-04-17T10:42:26.713Z,15.79
2023-04-17T10:44:59.785Z,15.87
2023-04-17T10:47:32.385Z,15.92
2023-04-17T10:50:06.379Z,15.84
2023-04-17T10:52:42.094Z,15.91
2023-04-17T10:55:11.252Z,15.85
2023-04-17T10:57:56.841Z,16.10
2023-04-17T11:00:38.005Z,16.22
2023-04-17T11:03:07.268Z,16.26
2023-04-17T11:05:36.755Z,16.27
2023-04-17T11:08:04.750Z,16.31
2023-04-17T11:10:37.122Z,16.37
2023-04-17T11:13:05.708Z,16.63
2023-04-17T11:15:35.423Z,16.79
2023-04-17T11:18:04.037Z,16.57
2023-04-17T11:20:34.151Z,16.59
2023-04-17T11:23:04.159Z,16.72
2023-04-17T11:25:34.399Z,16.86
2023-04-17T11:28:04.451Z,16.98
2023-04-17T11:30:34.262Z,17.01
2023-04-17T11:33:03.206Z,17.05
2023-04-17T11:35:33.095Z,17.29
2023-04-17T11:38:17.866Z,17.44
2023-04-17T11:40:47.615Z,17.42
2023-04-17T11:43:15.666Z,17.50
2023-04-17T11:45:45.019Z,17.15
2023-04-17T11:48:14.160Z,17.30
2023-04-17T11:50:43.604Z,17.52
2023-04-17T11:53:16.670Z,17.48
2023-04-17T11:55:45.644Z,17.69
2023-04-17T11:58:15.290Z,17.62
2023-04-17T12:00:43.722Z,17.83
2023-04-17T12:03:35.110Z,17.85
2023-04-17T12:06:04.827Z,17.99
2023-04-17T12:08:44.937Z,18.16
2023-04-17T12:11:25.161Z,18.07
2023-04-17T12:13:53.340Z,17.96
2023-04-17T12:16:21.461Z,17.83
2023-04-17T12:18:49.560Z,17.89
2023-04-17T12:21:18.053Z,17.76
2023-04-17T12:23:47.424Z,17.83
2023-04-17T12:26:15.418Z,17.81
2023-04-17T12:28:43.437Z,18.10
2023-04-17T12:31:11.458Z,18.12
2023-04-17T12:33:39.475Z,18.11
2023-04-17T12:36:08.516Z,18.13
2023-04-17T12:38:36.537Z,18.36
2023-04-17T12:41:05.885Z,18.37
2023-04-17T12:43:34.199Z,18.22
2023-04-17T12:46:03.233Z,18.43
2023-04-17T12:48:33.010Z,18.55
2023-04-17T12:51:01.342Z,18.48
2023-04-17T12:53:30.071Z,18.35
2023-04-17T12:55:58.792Z,18.49
2023-04-17T12:58:28.093Z,18.40
2023-04-17T13:00:56.098Z,18.39
2023-04-17T13:03:24.211Z,18.72
2023-04-17T13:05:53.386Z,18.66
2023-04-17T13:08:21.534Z,18.85
2023-04-17T13:10:49.436Z,18.86
2023-04-17T13:13:17.319Z,18.87
2023-04-17T13:15:47.942Z,18.68
2023-04-17T13:18:16.008Z,18.61
2023-04-17T13:20:43.957Z,18.82
2023-04-17T13:23:12.048Z,18.78
2023-04-17T13:25:40.030Z,18.83
2023-04-17T13:28:07.965Z,18.77
2023-04-17T13:30:37.256Z,18.87
2023-04-17T13:33:06.900Z,18.88
2023-04-17T13:35:34.836Z,18.78
2023-04-17T13:38:03.198Z,18.82
2023-04-17T13:40:31.248Z,18.95
2023-04-17T13:43:00.380Z,19.03
2023-04-17T13:45:28.421Z,19.04
2023-04-17T13:47:56.393Z,19.17
2023-04-17T13:50:25.702Z,19.29
2023-04-17T13:52:53.727Z,19.24
2023-04-17T13:55:21.689Z,19.16
2023-04-17T13:57:51.054Z,19.04
2023-04-17T14:00:20.877Z,19.11
2023-04-17T14:02:49.174Z,19.07
2023-04-17T14:05:17.311Z,19.07
2023-04-17T14:07:46.595Z,19.26
2023-04-17T14:10:14.560Z,19.52
2023-04-17T14:12:42.528Z,19.44
2023-04-17T14:15:11.563Z,19.70
2023-04-17T14:17:43.389Z,19.61
2023-04-17T14:20:12.402Z,19.78
2023-04-17T14:22:40.313Z,19.73
2023-04-17T14:25:10.556Z,19.65
2023-04-17T14:27:41.318Z,19.53
2023-04-17T14:30:10.153Z,19.45
2023-04-17T14:32:38.682Z,19.67
2023-04-17T14:35:07.645Z,19.54
2023-04-17T14:37:35.623Z,19.54
2023-04-17T14:40:04.796Z,19.30
2023-04-17T14:42:38.241Z,19.35
2023-04-17T14:45:15.261Z,19.32
2023-04-17T14:47:44.000Z,19.52
2023-04-17T14:52:43.135Z,19.37
2023-04-17T14:55:12.492Z,19.27
2023-04-17T14:57:41.913Z,19.37
2023-04-17T15:00:10.636Z,19.47
2023-04-17T15:02:39.543Z,19.49
2023-04-17T15:05:08.499Z,19.45
2023-04-17T15:07:36.517Z,19.23
2023-04-17T15:10:04.977Z,19.06
2023-04-17T15:12:32.908Z,19.29
2023-04-17T15:15:02.252Z,19.39
2023-04-17T15:17:30.200Z,19.41
2023-04-17T15:20:00.373Z,19.06
2023-04-17T15:22:28.642Z,19.25
2023-04-17T15:24:56.591Z,19.47
2023-04-17T15:27:24.698Z,19.45
2023-04-17T15:29:52.936Z,19.15
2023-04-17T15:32:22.314Z,18.94
2023-04-17T15:34:50.249Z,18.40
2023-04-17T15:37:18.154Z,18.67
2023-04-17T15:39:46.229Z,18.47
2023-04-17T15:42:14.179Z,18.86
2023-04-17T15:44:42.150Z,18.94
2023-04-17T15:47:10.120Z,18.91
2023-04-17T15:49:39.448Z,18.30
2023-04-17T15:52:07.662Z,18.37
2023-04-17T15:54:35.638Z,18.62
2023-04-17T15:57:03.517Z,18.74
2023-04-17T15:59:32.058Z,18.97
2023-04-17T16:02:00.226Z,18.64
2023-04-17T16:04:28.686Z,18.37
2023-04-17T16:06:58.084Z,17.57
2023-04-17T16:09:25.985Z,17.50
2023-04-17T16:11:53.867Z,16.71
2023-04-17T16:14:21.827Z,16.76
2023-04-17T16:16:49.714Z,17.14
2023-04-17T16:19:17.642Z,16.68
2023-04-17T16:21:45.591Z,16.62
2023-04-17T16:24:14.914Z,16.60
2023-04-17T16:26:42.816Z,16.66
2023-04-17T16:29:10.927Z,16.35
2023-04-17T16:31:38.907Z,16.13
2023-04-17T16:34:06.846Z,16.74
2023-04-17T16:36:34.787Z,17.24
2023-04-17T16:39:03.627Z,17.67
2023-04-17T16:41:32.939Z,17.48
2023-04-17T16:44:01.008Z,17.05
2023-04-17T16:46:40.320Z,16.85
2023-04-17T16:49:16.877Z,17.33
2023-04-17T16:51:47.195Z,17.44
2023-04-17T16:54:19.437Z,17.35
2023-04-17T16:56:49.254Z,17.42
2023-04-17T16:59:17.387Z,17.72
2023-04-17T17:01:47.072Z,17.09
2023-04-17T17:04:15.229Z,17.16
2023-04-17T17:06:43.415Z,17.28
2023-04-17T17:09:11.590Z,17.47
2023-04-17T17:11:39.714Z,16.96
2023-04-17T17:14:09.044Z,17.13
2023-04-17T17:16:37.049Z,17.12
2023-04-17T17:19:06.015Z,16.54
2023-04-17T17:21:34.231Z,16.26
2023-04-17T17:24:02.144Z,16.39
2023-04-17T17:26:30.110Z,16.15
2023-04-17T17:28:58.197Z,16.07
2023-04-17T17:31:27.516Z,15.97
2023-04-17T17:33:55.928Z,15.71
2023-04-17T17:36:23.835Z,16.04
2023-04-17T17:38:55.893Z,15.51
2023-04-17T17:41:24.151Z,14.86
2023-04-17T17:43:52.424Z,14.07
2023-04-17T17:46:21.304Z,13.87
2023-04-17T17:48:50.765Z,13.57
2023-04-17T17:51:18.686Z,13.61
2023-04-17T17:53:46.632Z,13.62
2023-04-17T17:56:15.199Z,13.47
2023-04-17T17:58:43.091Z,13.31
2023-04-17T18:01:11.071Z,13.28
2023-04-17T18:03:39.088Z,13.37
2023-04-17T18:06:08.507Z,13.37
2023-04-17T18:08:38.398Z,13.39
2023-04-17T18:11:06.393Z,13.37
2023-04-17T18:13:34.379Z,13.41
2023-04-17T18:16:04.656Z,12.91
2023-04-17T18:18:32.807Z,12.97
2023-04-17T18:21:00.818Z,12.94
2023-04-17T18:23:30.121Z,12.90
2023-04-17T18:25:58.891Z,12.72
2023-04-17T18:28:27.004Z,12.67
2023-04-17T18:30:55.106Z,12.66
2023-04-17T18:33:23.092Z,12.65
2023-04-17T18:35:51.079Z,12.34
2023-04-17T18:38:19.066Z,12.51
2023-04-17T18:40:48.353Z,12.31
2023-04-17T18:43:16.300Z,12.10
2023-04-17T18:45:44.228Z,12.36
2023-04-17T18:48:12.124Z,12.21
2023-04-17T18:50:40.152Z,12.19
2023-04-17T18:53:08.078Z,12.18
2023-04-17T18:55:37.210Z,12.06
2023-04-17T18:58:06.549Z,12.01
2023-04-17T19:00:34.524Z,11.97
2023-04-17T19:03:02.460Z,11.83
2023-04-17T19:05:30.456Z,11.73
2023-04-17T19:07:58.376Z,11.53
2023-04-17T19:10:26.324Z,11.72
2023-04-17T19:12:54.224Z,11.70
2023-04-17T19:15:24.308Z,11.58
2023-04-17T19:17:52.811Z,11.55
2023-04-17T19:20:22.764Z,11.36
2023-04-17T19:22:50.766Z,11.37
2023-04-17T19:25:18.740Z,11.37
2023-04-17T19:27:46.693Z,11.29
2023-04-17T19:30:14.777Z,11.43
2023-04-17T19:32:44.667Z,11.34
2023-04-17T19:35:12.623Z,11.14
2023-04-17T19:37:40.528Z,10.94
2023-04-17T19:40:21.384Z,11.06
2023-04-17T19:42:52.645Z,10.97
2023-04-17T19:45:20.887Z,11.07
2023-04-17T19:47:55.047Z,10.82
2023-04-17T19:50:23.816Z,10.88
2023-04-17T19:52:51.997Z,10.94
2023-04-17T19:55:20.140Z,10.56
2023-04-17T19:57:49.468Z,10.66
2023-04-17T20:00:17.784Z,10.68
2023-04-17T20:02:46.218Z,10.32
2023-04-17T20:05:17.017Z,10.38
2023-04-17T20:07:44.920Z,10.47
2023-04-17T20:10:13.073Z,10.41
2023-04-17T20:12:41.066Z,10.51
2023-04-17T20:15:10.358Z,10.59
2023-04-17T20:17:38.423Z,10.49
2023-04-17T20:20:07.815Z,10.36
2023-04-17T20:22:37.140Z,10.39
2023-04-17T20:25:05.613Z,10.29
2023-04-17T20:27:33.542Z,10.31
2023-04-17T20:30:01.489Z,10.13
2023-04-17T20:32:29.391Z,9.93
2023-04-17T20:34:57.355Z,10.20
2023-04-17T20:37:25.300Z,10.11
2023-04-17T20:39:54.613Z,10.25
2023-04-17T20:42:22.543Z,10.06
2023-04-17T20:44:50.458Z,9.91
2023-04-17T20:47:18.339Z,9.89
2023-04-17T20:49:46.300Z,9.90
2023-04-17T20:52:14.189Z,10.05
2023-04-17T20:54:42.209Z,9.91
2023-04-17T20:57:11.537Z,9.87
2023-04-17T20:59:39.425Z,9.86
2023-04-17T21:02:07.475Z,9.92
2023-04-17T21:04:35.505Z,9.92
2023-04-17T21:07:03.588Z,9.94
2023-04-17T21:09:31.545Z,10.06
2023-04-17T21:11:59.466Z,10.03
2023-04-17T21:14:29.572Z,10.01
2023-04-17T21:16:58.586Z,10.01
2023-04-17T21:19:27.359Z,9.92
2023-04-17T21:21:55.424Z,9.73
2023-04-17T21:24:23.362Z,9.84
2023-04-17T21:26:51.339Z,9.81
2023-04-17T21:29:19.283Z,9.95
2023-04-17T21:31:48.635Z,9.94
2023-04-17T21:34:16.575Z,9.87
2023-04-17T21:36:44.523Z,9.78
2023-04-17T21:39:12.414Z,9.80
2023-04-17T21:41:40.312Z,9.87
2023-04-17T21:44:10.297Z,9.81
2023-04-17T21:46:38.679Z,9.60
2023-04-17T21:49:07.963Z,9.75
2023-04-17T21:51:35.970Z,9.62
2023-04-17T21:54:04.235Z,9.67
2023-04-17T21:56:33.105Z,9.79
2023-04-17T21:59:01.008Z,9.81
2023-04-17T22:01:29.148Z,9.80
2023-04-17T22:03:57.063Z,9.67
2023-04-17T22:06:26.554Z,9.62
2023-04-17T22:08:54.468Z,9.68
2023-04-17T22:11:23.138Z,9.60
2023-04-17T22:13:51.052Z,9.53
2023-04-17T22:16:18.978Z,9.58
2023-04-17T22:18:46.938Z,9.61
2023-04-17T22:21:14.917Z,9.51
2023-04-17T22:23:44.281Z,9.60
2023-04-17T22:26:12.301Z,9.47
2023-04-17T22:28:40.212Z,9.40
2023-04-17T22:31:08.193Z,9.34
2023-04-17T22:33:36.133Z,9.32
2023-04-17T22:36:04.260Z,9.30
2023-04-17T22:38:32.221Z,9.37
2023-04-17T22:41:01.609Z,9.33
2023-04-17T22:43:29.549Z,9.38
2023-04-17T22:45:57.557Z,9.32
2023-04-17T22:48:25.671Z,9.34
2023-04-17T22:50:53.623Z,9.31
2023-04-17T22:53:22.495Z,9.23
2023-04-17T22:56:02.279Z,9.21
2023-04-17T22:58:32.348Z,9.13
2023-04-17T23:01:03.013Z,9.21
2023-04-17T23:03:31.003Z,9.16
2023-04-17T23:05:58.923Z,9.16
2023-04-17T23:08:26.956Z,9.16
2023-04-17T23:10:59.767Z,9.08
2023-04-17T23:13:29.245Z,9.12
2023-04-17T23:15:57.292Z,9.09
2023-04-17T23:18:25.461Z,9.10
2023-04-17T23:20:53.394Z,9.08
2023-04-17T23:23:21.602Z,9.11
2023-04-17T23:25:49.503Z,9.05
2023-04-17T23:28:17.452Z,9.12
2023-04-17T23:30:46.751Z,9.10
2023-04-17T23:33:14.676Z,9.03
2023-04-17T23:35:42.577Z,9.02
2023-04-17T23:38:10.503Z,9.00
2023-04-17T23:40:38.437Z,8.93
2023-04-17T23:43:06.348Z,8.82
2023-04-17T23:45:34.257Z,8.81
2023-04-17T23:48:03.599Z,8.85
2023-04-17T23:50:31.513Z,8.87
2023-04-17T23:52:59.434Z,8.89
2023-04-17T23:55:27.424Z,8.84
2023-04-17T23:57:55.381Z,8.83
